Time;durP1;ratioP1;P1;durP2;ratioP2;P2;SDS_P1;SDS_P2;PMS_P1;PMS_P2;Temp;Humidity;BMP_temperature;BMP_pressure;BME280_temperature;BME280_humidity;BME280_pressure;Samples;Min_cycle;Max_cycle;Signal;HPM_P1;HPM_P2
2022/03/18 00:00:17;;;;;;;11.65;2.80;;;10.60;92.70;;;;;;4940981;28;20056;-67
2022/03/18 00:02:42;;;;;;;13.90;3.47;;;10.60;92.70;;;;;;4950820;28;20039;-67
2022/03/18 00:05:08;;;;;;;6.25;2.90;;;10.50;92.70;;;;;;4952037;28;20520;-67
2022/03/18 00:07:34;;;;;;;8.88;2.78;;;10.50;92.70;;;;;;4946157;28;20024;-67
2022/03/18 00:10:00;;;;;;;13.40;3.38;;;10.40;92.90;;;;;;4945477;28;20453;-67
2022/03/18 00:12:25;;;;;;;8.95;2.70;;;10.40;92.70;;;;;;4951881;28;20031;-67
2022/03/18 00:14:51;;;;;;;12.25;3.00;;;10.40;92.80;;;;;;4950673;28;20047;-67
2022/03/18 00:17:17;;;;;;;9.23;3.08;;;10.40;92.90;;;;;;4952871;28;20426;-67
2022/03/18 00:19:43;;;;;;;14.43;3.15;;;10.40;92.90;;;;;;4951863;28;20381;-67
2022/03/18 00:22:12;;;;;;;9.82;2.88;;;10.30;92.90;;;;;;4945479;28;20028;-67
2022/03/18 00:24:38;;;;;;;9.27;3.60;;;10.30;93.00;;;;;;4945238;28;20043;-67
2022/03/18 00:27:04;;;;;;;9.55;3.03;;;10.30;93.00;;;;;;4971955;28;20092;-67
2022/03/18 00:29:32;;;;;;;11.30;2.78;;;10.30;93.00;;;;;;4935499;28;20043;-67
2022/03/18 00:31:58;;;;;;;12.15;2.92;;;10.20;93.00;;;;;;5003498;28;20028;-67
2022/03/18 00:34:23;;;;;;;14.23;3.50;;;10.20;93.00;;;;;;4951653;28;20104;-67
2022/03/18 00:36:49;;;;;;;10.90;3.10;;;10.20;93.00;;;;;;4946055;28;20031;-67
2022/03/18 00:39:14;;;;;;;13.60;3.33;;;10.20;93.00;;;;;;4968749;28;20357;-67
2022/03/18 00:41:41;;;;;;;7.00;2.60;;;10.20;93.00;;;;;;4970239;28;20130;-67
2022/03/18 00:44:07;;;;;;;15.35;3.25;;;10.10;92.90;;;;;;4944000;28;20031;-67
2022/03/18 00:46:34;;;;;;;10.90;2.90;;;10.10;92.90;;;;;;4951836;28;20034;-67
2022/03/18 00:52:03;;;;;;;8.20;2.97;;;10.10;93.00;;;;;;4940178;28;20042;-67
2022/03/18 00:54:28;;;;;;;23.90;3.92;;;10.00;93.00;;;;;;5005932;28;20126;-67
2022/03/18 00:56:54;;;;;;;9.60;2.03;;;10.00;93.00;;;;;;4941806;28;20118;-67
2022/03/18 00:59:20;;;;;;;8.25;2.53;;;10.00;93.00;;;;;;4938439;28;20051;-66
2022/03/18 01:01:45;;;;;;;12.02;3.00;;;9.90;93.10;;;;;;4951041;28;20494;-67
2022/03/18 01:04:11;;;;;;;9.55;2.40;;;9.90;93.10;;;;;;4950756;28;20055;-67
2022/03/18 01:06:37;;;;;;;9.23;2.53;;;9.90;93.20;;;;;;4951209;28;20479;-67
2022/03/18 01:09:05;;;;;;;10.70;2.78;;;9.90;93.20;;;;;;4949873;28;20421;-67
2022/03/18 01:11:32;;;;;;;9.13;3.05;;;9.80;93.20;;;;;;4949859;28;20035;-67
2022/03/18 01:13:58;;;;;;;6.30;2.47;;;9.90;93.30;;;;;;4931821;28;20048;-66
2022/03/18 01:16:24;;;;;;;13.95;2.42;;;9.80;93.30;;;;;;4930989;28;20123;-67
2022/03/18 01:18:50;;;;;;;6.68;2.30;;;9.80;93.30;;;;;;4949673;28;20121;-67
2022/03/18 01:21:15;;;;;;;7.53;1.88;;;9.70;93.30;;;;;;4938624;28;20418;-67
2022/03/18 01:23:41;;;;;;;10.52;3.15;;;9.70;93.30;;;;;;4943899;28;20067;-67
2022/03/18 01:26:09;;;;;;;4.05;1.88;;;9.70;93.30;;;;;;4943466;28;20062;-66
2022/03/18 01:28:35;;;;;;;12.65;3.85;;;9.70;93.40;;;;;;4938838;29;20039;-67
2022/03/18 01:31:00;;;;;;;12.13;3.70;;;9.60;93.30;;;;;;4950287;28;20038;-67
2022/03/18 01:33:26;;;;;;;13.95;3.90;;;9.60;93.30;;;;;;4950687;28;20390;-67
2022/03/18 01:35:52;;;;;;;16.75;3.60;;;9.50;93.30;;;;;;4948616;28;20030;-67
2022/03/18 01:38:17;;;;;;;9.95;3.42;;;9.60;93.40;;;;;;4937947;28;20065;-67
2022/03/18 01:40:43;;;;;;;15.52;4.82;;;9.60;93.40;;;;;;4967706;28;20035;-67
2022/03/18 01:43:10;;;;;;;6.03;2.90;;;9.50;93.30;;;;;;4950834;28;20161;-67
2022/03/18 01:45:35;;;;;;;6.80;2.97;;;9.50;93.30;;;;;;4937124;28;20032;-67
2022/03/18 01:48:03;;;;;;;12.45;3.10;;;9.50;93.30;;;;;;4943088;28;20059;-67
2022/03/18 01:50:30;;;;;;;7.10;2.15;;;9.50;93.30;;;;;;4942735;28;20039;-67
2022/03/18 01:52:56;;;;;;;9.40;2.25;;;9.40;93.20;;;;;;4951547;28;20495;-67
2022/03/18 01:55:23;;;;;;;8.20;2.90;;;9.40;93.20;;;;;;5014871;28;20112;-67
2022/03/18 01:57:49;;;;;;;5.65;2.20;;;9.30;93.20;;;;;;4965547;28;20180;-67
2022/03/18 02:00:14;;;;;;;3.40;1.67;;;9.30;93.20;;;;;;4956073;28;20143;-67
2022/03/18 02:02:40;;;;;;;10.10;3.05;;;9.30;93.20;;;;;;4954141;28;20031;-67
2022/03/18 02:05:07;;;;;;;12.43;3.05;;;9.20;93.20;;;;;;4951832;28;20126;-66
2022/03/18 02:07:32;;;;;;;10.18;1.77;;;9.20;93.20;;;;;;4949524;28;20110;-67
2022/03/18 02:09:58;;;;;;;4.40;2.45;;;9.20;93.20;;;;;;4950390;28;20514;-67
2022/03/18 02:12:24;;;;;;;5.60;2.58;;;9.20;93.20;;;;;;4956331;28;20035;-66
2022/03/18 02:14:50;;;;;;;7.60;2.40;;;9.20;93.10;;;;;;4932796;28;20048;-67
2022/03/18 02:17:17;;;;;;;4.15;1.45;;;9.10;93.10;;;;;;4942139;28;20031;-67
2022/03/18 02:19:45;;;;;;;11.18;3.42;;;9.10;93.10;;;;;;4937862;28;20050;-67
2022/03/18 02:22:14;;;;;;;8.50;3.05;;;9.10;93.20;;;;;;4938133;28;20036;-67
2022/03/18 02:24:45;;;;;;;6.60;2.38;;;9.00;93.30;;;;;;4936586;28;20073;-67
2022/03/18 02:27:14;;;;;;;4.03;2.30;;;9.00;93.30;;;;;;4949993;28;20375;-67
2022/03/18 02:29:41;;;;;;;3.20;1.67;;;9.00;93.30;;;;;;5003432;28;20041;-67
2022/03/18 02:32:07;;;;;;;10.38;3.15;;;9.10;93.40;;;;;;4953293;28;20386;-67
2022/03/18 02:34:34;;;;;;;7.35;3.03;;;9.00;93.40;;;;;;4949041;28;20047;-67
2022/03/18 02:37:00;;;;;;;17.02;3.28;;;9.10;93.40;;;;;;4949513;28;20027;-67
2022/03/18 02:39:26;;;;;;;7.68;2.78;;;9.10;93.40;;;;;;4986143;28;20102;-67
2022/03/18 02:41:52;;;;;;;9.90;3.70;;;9.00;93.40;;;;;;4966798;28;20040;-67
2022/03/18 02:44:17;;;;;;;10.65;3.45;;;9.10;93.40;;;;;;4949651;28;20046;-67
2022/03/18 02:46:43;;;;;;;14.90;3.22;;;9.10;93.40;;;;;;4949531;28;20038;-67
2022/03/18 02:49:09;;;;;;;2.88;2.03;;;9.10;93.40;;;;;;4936273;28;20039;-67
2022/03/18 02:51:37;;;;;;;10.85;4.07;;;9.10;93.30;;;;;;4974871;28;20053;-67
2022/03/18 02:54:06;;;;;;;10.93;2.70;;;9.10;93.30;;;;;;4962459;28;20527;-67
2022/03/18 02:56:33;;;;;;;5.55;2.63;;;9.10;93.30;;;;;;4953173;28;20047;-67
2022/03/18 02:59:00;;;;;;;9.23;3.00;;;9.00;93.30;;;;;;4933732;28;20059;-67
2022/03/18 03:01:27;;;;;;;4.38;1.73;;;9.10;93.30;;;;;;4958891;28;20031;-67
2022/03/18 03:03:53;;;;;;;14.27;1.42;;;9.00;93.30;;;;;;4990656;28;20370;-67
2022/03/18 03:09:03;;;;;;;4.93;2.50;;;9.00;93.20;;;;;;4961191;28;20059;-66
2022/03/18 03:11:29;;;;;;;5.93;2.05;;;8.90;93.10;;;;;;4973595;28;20525;-67
2022/03/18 03:13:55;;;;;;;6.97;2.88;;;8.90;92.90;;;;;;4976236;28;20170;-67
2022/03/18 03:16:21;;;;;;;3.65;1.60;;;8.80;92.90;;;;;;5000826;28;20039;-67
2022/03/18 03:18:47;;;;;;;6.40;2.90;;;8.90;92.90;;;;;;4946865;28;20028;-67
2022/03/18 03:21:14;;;;;;;10.63;3.70;;;8.80;92.90;;;;;;4954575;28;20082;-67
2022/03/18 03:23:40;;;;;;;5.05;1.58;;;8.80;93.00;;;;;;4962789;28;20032;-67
2022/03/18 03:26:06;;;;;;;2.83;1.92;;;8.70;93.00;;;;;;4941995;28;20036;-67
2022/03/18 03:28:32;;;;;;;1.17;0.77;;;8.70;92.90;;;;;;4966553;28;20035;-67
2022/03/18 03:30:57;;;;;;;4.05;2.55;;;8.60;92.80;;;;;;5005346;28;20049;-67
2022/03/18 03:33:24;;;;;;;4.75;2.05;;;8.70;92.70;;;;;;4952793;28;20154;-67
2022/03/18 03:35:50;;;;;;;2.75;1.20;;;8.60;92.60;;;;;;4944390;28;20042;-67
2022/03/18 03:38:16;;;;;;;6.93;3.25;;;8.50;92.70;;;;;;4939168;28;20047;-67
2022/03/18 03:40:43;;;;;;;9.95;2.95;;;8.50;92.70;;;;;;4952253;28;20036;-67
2022/03/18 03:43:09;;;;;;;4.07;2.00;;;8.50;92.80;;;;;;4952011;28;20031;-67
2022/03/18 03:45:36;;;;;;;10.77;3.72;;;8.50;92.90;;;;;;4991004;28;20033;-67
2022/03/18 03:48:03;;;;;;;7.05;2.53;;;8.50;92.90;;;;;;4969530;28;20070;-67
2022/03/18 03:50:28;;;;;;;8.13;3.50;;;8.50;93.00;;;;;;4939377;28;20040;-67
2022/03/18 03:52:54;;;;;;;4.72;2.42;;;8.50;93.00;;;;;;4952150;28;20081;-67
2022/03/18 03:55:19;;;;;;;7.32;4.05;;;8.50;93.00;;;;;;4951705;28;20507;-67
2022/03/18 03:57:45;;;;;;;12.50;3.40;;;8.50;93.00;;;;;;4952138;28;20036;-67
2022/03/18 04:00:12;;;;;;;14.60;4.38;;;8.50;93.10;;;;;;4951440;28;20056;-67
2022/03/18 04:02:38;;;;;;;7.60;3.40;;;8.50;93.10;;;;;;4957057;28;20043;-67
2022/03/18 04:05:10;;;;;;;9.57;2.97;;;8.50;93.20;;;;;;5005191;28;20037;-67
2022/03/18 04:07:37;;;;;;;9.45;3.65;;;8.50;93.20;;;;;;4949096;28;20505;-66
2022/03/18 04:10:04;;;;;;;18.60;4.10;;;8.50;93.20;;;;;;4943273;28;20046;-67
2022/03/18 04:12:32;;;;;;;8.10;3.78;;;8.60;93.20;;;;;;4950714;28;20106;-67
2022/03/18 04:14:58;;;;;;;12.73;4.63;;;8.60;93.30;;;;;;4951464;28;20094;-67
2022/03/18 04:17:26;;;;;;;10.27;3.78;;;8.60;93.30;;;;;;4939102;28;20027;-67
2022/03/18 04:19:55;;;;;;;10.25;4.07;;;8.70;93.30;;;;;;4994609;28;20068;-66
2022/03/18 04:22:21;;;;;;;10.43;5.35;;;8.70;93.30;;;;;;4972413;28;20027;-67
2022/03/18 04:24:49;;;;;;;8.27;4.13;;;8.70;93.30;;;;;;4938360;28;20127;-67
2022/03/18 04:27:15;;;;;;;15.98;4.45;;;8.70;93.30;;;;;;4933490;28;20122;-67
2022/03/18 04:29:40;;;;;;;11.00;4.25;;;8.80;93.30;;;;;;4932537;28;20032;-67
2022/03/18 04:32:06;;;;;;;16.63;4.53;;;8.80;93.30;;;;;;4940049;28;20027;-67
2022/03/18 04:34:32;;;;;;;8.35;4.30;;;8.80;93.20;;;;;;4949665;28;20047;-66
2022/03/18 04:37:00;;;;;;;11.45;4.57;;;8.80;93.20;;;;;;4932488;28;20039;-66
2022/03/18 04:39:25;;;;;;;9.75;3.90;;;8.80;93.20;;;;;;4933671;28;20028;-67
2022/03/18 04:41:51;;;;;;;7.68;4.00;;;8.80;93.20;;;;;;4940448;28;20494;-67
2022/03/18 04:44:17;;;;;;;12.15;4.45;;;8.80;93.20;;;;;;4951575;28;20035;-67
2022/03/18 04:46:43;;;;;;;12.80;4.75;;;8.90;93.20;;;;;;4942542;28;20550;-67
2022/03/18 04:49:09;;;;;;;14.48;4.85;;;8.80;93.20;;;;;;4947239;28;20035;-67
2022/03/18 04:51:34;;;;;;;11.45;4.68;;;8.90;93.20;;;;;;4950570;28;20035;-66
2022/03/18 04:54:00;;;;;;;16.92;4.22;;;8.90;93.20;;;;;;4951079;28;20070;-66
2022/03/18 04:59:10;;;;;;;14.90;4.93;;;8.90;93.20;;;;;;4968620;28;20046;-68
2022/03/18 05:01:35;;;;;;;23.55;5.75;;;8.90;93.20;;;;;;4986540;28;20428;-67
2022/03/18 05:04:01;;;;;;;9.63;4.22;;;9.00;93.20;;;;;;4993492;28;20036;-68
2022/03/18 05:06:27;;;;;;;16.90;4.75;;;8.90;93.20;;;;;;4973554;28;20047;-68
2022/03/18 05:08:52;;;;;;;11.32;4.85;;;8.90;93.20;;;;;;4987406;28;20017;-68
2022/03/18 05:11:20;;;;;;;16.25;4.97;;;9.00;93.10;;;;;;4970560;28;20517;-68
2022/03/18 05:13:46;;;;;;;11.57;5.00;;;9.00;93.10;;;;;;4985966;28;20508;-68
2022/03/18 05:16:12;;;;;;;9.70;4.85;;;8.90;93.10;;;;;;5011132;28;20200;-68
2022/03/18 05:18:38;;;;;;;15.48;5.50;;;8.90;93.10;;;;;;4961460;28;20043;-68
2022/03/18 05:21:04;;;;;;;19.45;4.88;;;9.00;93.10;;;;;;4962942;28;20035;-68
2022/03/18 05:23:29;;;;;;;8.15;4.60;;;8.90;93.10;;;;;;4940687;28;20047;-68
2022/03/18 05:25:56;;;;;;;16.30;5.85;;;8.90;93.00;;;;;;4951990;28;20046;-75
2022/03/18 05:28:21;;;;;;;12.77;5.13;;;8.90;93.00;;;;;;4931302;28;20043;-68
2022/03/18 05:30:47;;;;;;;12.63;4.75;;;8.90;93.00;;;;;;4931682;28;20038;-69
2022/03/18 05:33:12;;;;;;;12.07;5.38;;;8.90;93.00;;;;;;4933171;28;20028;-67
2022/03/18 05:35:38;;;;;;;12.73;5.05;;;8.90;93.00;;;;;;4943856;28;20043;-68
2022/03/18 05:38:04;;;;;;;12.10;5.28;;;8.90;93.00;;;;;;4939252;28;20046;-67
2022/03/18 05:40:30;;;;;;;10.52;5.38;;;8.90;92.90;;;;;;4947643;28;20039;-68
2022/03/18 05:42:55;;;;;;;16.98;5.28;;;8.90;92.90;;;;;;4949866;28;20027;-68
2022/03/18 05:45:22;;;;;;;11.13;5.07;;;8.90;92.90;;;;;;4949295;28;20374;-67
2022/03/18 05:47:49;;;;;;;13.15;5.22;;;8.90;92.90;;;;;;4995508;28;20041;-68
2022/03/18 05:50:16;;;;;;;14.88;5.25;;;8.90;92.80;;;;;;4991750;28;20031;-68
2022/03/18 05:52:44;;;;;;;16.17;6.05;;;8.90;92.90;;;;;;4958553;28;20040;-67
2022/03/18 05:55:09;;;;;;;11.20;5.68;;;8.90;92.80;;;;;;5010939;28;20052;-70
2022/03/18 05:57:35;;;;;;;14.10;5.47;;;8.90;92.80;;;;;;4987559;28;20034;-70
2022/03/18 06:00:01;;;;;;;12.35;6.00;;;8.90;92.80;;;;;;4952546;28;20062;-70
2022/03/18 06:02:28;;;;;;;11.55;4.70;;;8.80;92.70;;;;;;4958424;28;20118;-69
2022/03/18 06:04:54;;;;;;;17.15;5.03;;;8.80;92.60;;;;;;4948178;28;20031;-69
2022/03/18 06:07:20;;;;;;;10.32;4.57;;;8.70;92.60;;;;;;4946427;28;20089;-74
2022/03/18 06:12:34;;;;;;;10.25;5.22;;;8.70;92.60;;;;;;4957870;28;20027;-68
2022/03/18 06:15:03;;;;;;;12.15;4.97;;;8.70;92.60;;;;;;4954903;28;20039;-67
2022/03/18 06:17:28;;;;;;;13.15;5.70;;;8.70;92.60;;;;;;4985459;28;20032;-67
2022/03/18 06:19:58;;;;;;;13.60;5.15;;;8.70;92.60;;;;;;4985367;28;20069;-67
2022/03/18 06:22:24;;;;;;;12.48;5.63;;;8.60;92.60;;;;;;4961482;28;20130;-68
2022/03/18 06:24:49;;;;;;;16.02;5.90;;;8.60;92.60;;;;;;4948134;28;20546;-67
2022/03/18 06:27:15;;;;;;;10.38;4.95;;;8.60;92.60;;;;;;4958033;28;20026;-67
2022/03/18 06:29:43;;;;;;;9.45;5.05;;;8.60;92.60;;;;;;4968152;28;20425;-67
2022/03/18 06:32:09;;;;;;;15.38;5.78;;;8.60;92.60;;;;;;4948044;28;20055;-67
2022/03/18 06:34:35;;;;;;;16.58;6.15;;;8.60;92.70;;;;;;4947252;28;20043;-68
2022/03/18 06:37:02;;;;;;;10.32;4.88;;;8.60;92.70;;;;;;4961872;28;20548;-67
2022/03/18 06:39:27;;;;;;;12.65;5.22;;;8.60;92.70;;;;;;4956672;28;20154;-70
2022/03/18 06:41:54;;;;;;;19.35;5.35;;;8.50;92.70;;;;;;4972876;28;20157;-67
2022/03/18 06:44:20;;;;;;;15.38;4.97;;;8.60;92.80;;;;;;4968586;28;20031;-67
2022/03/18 06:46:46;;;;;;;10.45;4.65;;;8.60;92.80;;;;;;4964799;28;20030;-68
2022/03/18 06:49:13;;;;;;;16.70;5.88;;;8.50;92.80;;;;;;4969477;28;20030;-68
2022/03/18 06:51:39;;;;;;;11.55;5.78;;;8.50;92.80;;;;;;4990929;28;20046;-68
2022/03/18 06:54:05;;;;;;;9.73;5.15;;;8.50;92.80;;;;;;4973376;28;20047;-68
2022/03/18 06:56:31;;;;;;;12.65;5.60;;;8.50;92.90;;;;;;5001338;28;20067;-70
2022/03/18 06:58:57;;;;;;;12.82;5.15;;;8.50;92.90;;;;;;4946211;28;20065;-67
2022/03/18 07:01:23;;;;;;;11.77;5.18;;;8.50;92.90;;;;;;4986928;28;20031;-67
2022/03/18 07:03:50;;;;;;;10.52;5.25;;;8.50;92.90;;;;;;4932927;28;20070;-67
2022/03/18 07:06:16;;;;;;;15.40;6.25;;;8.50;92.90;;;;;;4942534;28;20055;-66
2022/03/18 07:08:42;;;;;;;10.77;5.28;;;8.50;92.90;;;;;;4939603;28;20039;-66
2022/03/18 07:11:08;;;;;;;6.85;3.60;;;8.50;92.90;;;;;;4953177;28;20045;-66
2022/03/18 07:13:33;;;;;;;15.60;5.13;;;8.50;92.90;;;;;;4949256;28;20430;-66
2022/03/18 07:17:55;;;;;;;15.00;5.38;;;8.50;92.90;;;;;;4944203;28;20792;-66
2022/03/18 07:18:45;;;;;;;16.90;5.82;;;8.50;92.90;;;;;;4952953;28;20118;-66
2022/03/18 07:21:11;;;;;;;15.07;6.13;;;8.50;93.00;;;;;;4999738;28;20134;-66
2022/03/18 07:23:37;;;;;;;17.20;5.93;;;8.50;93.00;;;;;;4939864;28;20070;-66
2022/03/18 07:26:02;;;;;;;12.77;5.72;;;8.50;93.00;;;;;;4952671;28;20032;-66
2022/03/18 07:28:28;;;;;;;14.85;6.00;;;8.50;93.00;;;;;;4945816;28;20097;-66
2022/03/18 07:30:54;;;;;;;15.10;5.95;;;8.50;93.00;;;;;;4933768;28;20111;-66
2022/03/18 07:33:22;;;;;;;16.25;6.28;;;8.60;93.00;;;;;;4952678;28;20854;-66
2022/03/18 07:35:48;;;;;;;15.70;6.10;;;8.50;93.00;;;;;;4951623;28;20363;-66
2022/03/18 07:38:13;;;;;;;11.88;5.80;;;8.60;93.00;;;;;;4952503;28;20077;-66
2022/03/18 07:40:40;;;;;;;20.08;6.28;;;8.50;93.00;;;;;;4952533;28;20629;-66
2022/03/18 07:43:07;;;;;;;16.80;6.90;;;8.60;93.00;;;;;;4952618;28;20039;-66
2022/03/18 07:45:35;;;;;;;15.50;6.82;;;8.60;93.10;;;;;;4949491;28;20035;-66
2022/03/18 07:48:03;;;;;;;16.55;7.45;;;8.60;93.10;;;;;;4935840;28;20089;-66
2022/03/18 07:50:31;;;;;;;15.20;7.07;;;8.70;93.20;;;;;;4945650;28;20431;-66
2022/03/18 07:52:59;;;;;;;25.10;7.30;;;8.70;93.30;;;;;;4952024;28;20050;-66
2022/03/18 07:55:27;;;;;;;20.02;6.63;;;8.80;93.40;;;;;;4951272;28;20050;-66
2022/03/18 07:57:56;;;;;;;19.77;8.43;;;8.80;93.50;;;;;;4940361;28;20042;-66
2022/03/18 08:00:22;;;;;;;23.98;8.65;;;8.80;93.50;;;;;;4950510;28;20438;-66
2022/03/18 08:02:49;;;;;;;17.90;7.57;;;8.90;93.60;;;;;;4941374;28;20471;-66
2022/03/18 08:05:15;;;;;;;19.80;8.02;;;8.90;93.50;;;;;;4951635;28;20092;-66
2022/03/18 08:07:42;;;;;;;22.13;6.97;;;8.90;93.40;;;;;;4952121;28;20521;-66
2022/03/18 08:10:09;;;;;;;33.85;10.65;;;9.00;93.60;;;;;;4951953;28;20069;-66
2022/03/18 08:12:37;;;;;;;18.77;7.97;;;9.00;93.80;;;;;;4942094;28;20047;-66
2022/03/18 08:15:08;;;;;;;28.17;8.73;;;9.10;94.00;;;;;;4949124;28;20039;-66
2022/03/18 08:17:34;;;;;;;26.02;8.85;;;9.20;94.30;;;;;;4940804;28;20487;-66
2022/03/18 08:20:00;;;;;;;22.83;9.02;;;9.30;94.30;;;;;;4975939;28;20038;-66
2022/03/18 08:22:27;;;;;;;20.33;8.35;;;9.40;94.40;;;;;;4955894;28;20039;-66
2022/03/18 08:24:53;;;;;;;27.95;9.88;;;9.50;94.50;;;;;;4938873;28;20546;-66
2022/03/18 08:27:19;;;;;;;26.75;9.60;;;9.50;94.60;;;;;;4951876;28;20403;-66
2022/03/18 08:29:46;;;;;;;20.52;8.30;;;9.50;94.80;;;;;;4945991;28;20073;-66
2022/03/18 08:32:16;;;;;;;26.35;8.90;;;9.60;94.80;;;;;;4945364;28;20150;-66
2022/03/18 08:34:42;;;;;;;25.27;8.65;;;9.70;95.00;;;;;;4939496;28;20050;-66
2022/03/18 08:37:09;;;;;;;26.35;8.32;;;9.80;95.00;;;;;;4950845;28;20039;-66
2022/03/18 08:39:36;;;;;;;28.85;9.10;;;9.90;95.10;;;;;;4944102;28;20169;-66
2022/03/18 08:42:02;;;;;;;18.27;8.93;;;10.00;95.10;;;;;;4944824;28;20387;-66
2022/03/18 08:44:28;;;;;;;38.38;9.05;;;10.00;95.10;;;;;;4941029;28;20039;-66
2022/03/18 08:46:55;;;;;;;19.83;8.10;;;10.10;95.30;;;;;;4947427;28;20178;-67
2022/03/18 08:49:20;;;;;;;31.88;8.80;;;10.10;95.30;;;;;;4970376;28;20065;-66
2022/03/18 08:51:46;;;;;;;25.25;7.93;;;10.20;95.30;;;;;;5013200;28;20106;-66
2022/03/18 08:54:12;;;;;;;32.08;7.95;;;10.20;95.30;;;;;;5020776;28;20052;-66
2022/03/18 08:56:37;;;;;;;24.02;7.38;;;10.30;95.40;;;;;;4956078;28;20059;-66
2022/03/18 08:59:06;;;;;;;24.98;7.93;;;10.40;95.40;;;;;;5029524;28;20049;-66
2022/03/18 09:01:35;;;;;;;29.08;7.97;;;10.50;95.50;;;;;;4943831;28;20047;-66
2022/03/18 09:04:01;;;;;;;30.25;8.40;;;10.50;95.60;;;;;;4946118;28;20105;-66
2022/03/18 09:06:27;;;;;;;19.00;7.07;;;10.60;95.70;;;;;;4977104;28;20423;-66
2022/03/18 09:08:53;;;;;;;22.10;7.70;;;10.70;95.90;;;;;;5014279;28;20059;-66
2022/03/18 09:11:18;;;;;;;36.00;8.88;;;10.70;96.00;;;;;;4973938;28;20033;-66
2022/03/18 09:13:44;;;;;;;26.73;8.90;;;10.80;95.90;;;;;;4996572;28;20070;-68
2022/03/18 09:16:12;;;;;;;33.17;8.85;;;10.90;96.00;;;;;;5002252;28;20029;-67
2022/03/18 09:18:41;;;;;;;22.40;7.18;;;10.90;96.00;;;;;;5002553;28;20034;-66
2022/03/18 09:21:07;;;;;;;24.08;6.47;;;11.00;96.00;;;;;;5012571;28;20042;-67
2022/03/18 09:23:33;;;;;;;24.77;7.30;;;11.00;95.90;;;;;;4971581;28;20039;-67
2022/03/18 09:25:58;;;;;;;26.30;7.00;;;11.10;95.80;;;;;;4937504;28;20039;-67
2022/03/18 09:28:24;;;;;;;21.10;6.55;;;11.10;95.90;;;;;;4934444;28;20494;-68
2022/03/18 09:30:50;;;;;;;27.13;6.13;;;11.10;95.70;;;;;;4958535;28;20066;-67
2022/03/18 09:33:16;;;;;;;20.02;7.05;;;11.20;95.60;;;;;;4950965;28;20046;-65
2022/03/18 09:35:43;;;;;;;25.88;7.88;;;11.20;95.50;;;;;;4945644;28;20036;-66
2022/03/18 09:38:09;;;;;;;32.53;8.32;;;11.20;95.60;;;;;;4942740;28;20104;-66
2022/03/18 09:40:36;;;;;;;27.38;7.25;;;11.20;95.80;;;;;;4950639;28;20031;-66
2022/03/18 09:43:07;;;;;;;28.23;7.43;;;11.30;96.00;;;;;;4950906;28;20034;-66
2022/03/18 09:45:34;;;;;;;28.27;6.93;;;11.30;96.00;;;;;;4943982;28;20051;-65
2022/03/18 09:48:02;;;;;;;24.50;6.25;;;11.40;96.00;;;;;;4936747;28;20035;-66
2022/03/18 09:50:29;;;;;;;24.23;6.00;;;11.40;95.80;;;;;;4950285;28;20118;-66
2022/03/18 09:52:55;;;;;;;30.58;6.57;;;11.50;95.90;;;;;;4944278;28;20476;-66
2022/03/18 09:55:21;;;;;;;25.10;6.30;;;11.50;95.90;;;;;;4944159;28;20047;-66
2022/03/18 09:57:47;;;;;;;31.65;5.55;;;11.60;95.70;;;;;;4938031;28;20483;-66
2022/03/18 10:00:13;;;;;;;28.83;5.75;;;11.70;95.50;;;;;;4938311;28;20066;-66
2022/03/18 10:02:39;;;;;;;29.27;7.30;;;11.70;95.40;;;;;;4936907;28;20031;-66
2022/03/18 10:05:15;;;;;;;24.90;6.68;;;11.70;95.40;;;;;;4937792;28;20121;-66
2022/03/18 10:07:53;;;;;;;17.13;5.40;;;11.70;95.20;;;;;;4950379;28;20746;-66
2022/03/18 10:10:20;;;;;;;25.23;5.60;;;11.80;95.20;;;;;;4948508;28;20035;-66
2022/03/18 10:12:47;;;;;;;18.58;6.25;;;11.80;95.20;;;;;;4940530;28;20078;-66
2022/03/18 10:15:25;;;;;;;20.88;7.25;;;11.70;95.30;;;;;;4943836;28;20036;-66
2022/03/18 10:17:56;;;;;;;27.33;5.53;;;11.80;95.40;;;;;;4943096;28;20129;-66
2022/03/18 10:20:30;;;;;;;23.52;6.45;;;11.80;95.30;;;;;;4983389;28;20375;-65
2022/03/18 10:23:01;;;;;;;26.23;6.97;;;11.90;95.10;;;;;;4961493;28;20042;-64
2022/03/18 10:25:38;;;;;;;29.40;6.45;;;11.90;95.10;;;;;;4950199;28;20057;-63
2022/03/18 10:28:06;;;;;;;25.25;4.85;;;12.00;95.20;;;;;;4945471;28;20032;-63
2022/03/18 10:30:50;;;;;;;21.67;5.32;;;12.00;95.30;;;;;;4943461;28;20051;-63
2022/03/18 10:33:15;;;;;;;33.65;6.22;;;12.00;94.80;;;;;;4948608;28;20035;-64
2022/03/18 10:38:33;;;;;;;26.95;5.45;;;12.10;94.80;;;;;;4937988;28;20149;-66
2022/03/18 10:41:05;;;;;;;22.35;4.78;;;12.10;94.90;;;;;;4929855;28;20389;-66
2022/03/18 10:43:52;;;;;;;25.17;5.25;;;12.20;94.90;;;;;;4930610;28;20512;-66
2022/03/18 10:46:19;;;;;;;15.95;5.15;;;12.20;94.90;;;;;;4934807;29;20050;-66
2022/03/18 10:49:04;;;;;;;21.63;6.57;;;12.30;94.90;;;;;;4949157;28;20039;-66
2022/03/18 10:51:31;;;;;;;27.50;5.75;;;12.40;94.90;;;;;;4949083;28;20042;-66
2022/03/18 10:53:57;;;;;;;26.13;5.93;;;12.50;94.90;;;;;;4931666;28;20044;-66
2022/03/18 10:56:23;;;;;;;22.02;5.50;;;12.50;94.80;;;;;;4930660;28;20024;-66
2022/03/18 10:58:49;;;;;;;26.00;5.25;;;12.60;94.60;;;;;;4930293;28;20060;-67
2022/03/18 11:01:16;;;;;;;22.20;5.70;;;12.60;94.60;;;;;;4938313;28;20118;-68
2022/03/18 11:03:45;;;;;;;20.05;4.70;;;12.70;94.70;;;;;;4984197;28;20029;-67
2022/03/18 11:06:11;;;;;;;25.20;5.80;;;12.70;94.70;;;;;;4966456;28;20364;-67
2022/03/18 11:08:48;;;;;;;26.63;5.28;;;12.80;94.60;;;;;;4948678;28;20058;-67
2022/03/18 11:11:18;;;;;;;28.15;5.72;;;12.80;94.50;;;;;;4949479;28;20498;-67
2022/03/18 11:14:06;;;;;;;20.40;4.63;;;12.90;94.40;;;;;;5017793;28;20496;-67
2022/03/18 11:16:36;;;;;;;17.75;4.78;;;12.90;94.40;;;;;;4955094;28;20047;-66
2022/03/18 11:19:05;;;;;;;19.38;4.57;;;13.00;94.40;;;;;;4961211;28;20728;-66
2022/03/18 11:21:41;;;;;;;24.15;4.45;;;13.00;94.30;;;;;;4963047;28;20021;-67
2022/03/18 11:24:09;;;;;;;28.88;5.32;;;13.00;94.20;;;;;;4977286;28;20118;-67
2022/03/18 11:26:36;;;;;;;28.77;5.50;;;13.10;94.10;;;;;;4941106;28;20050;-67
2022/03/18 11:29:09;;;;;;;24.38;5.03;;;13.10;94.10;;;;;;4952361;28;20027;-67
2022/03/18 11:31:36;;;;;;;20.08;4.95;;;13.10;94.00;;;;;;4952961;28;20031;-67
2022/03/18 11:34:14;;;;;;;21.00;4.85;;;13.10;93.90;;;;;;4949284;28;20048;-66
2022/03/18 11:37:12;;;;;;;17.45;5.07;;;13.10;94.00;;;;;;4952277;28;20108;-66
2022/03/18 11:39:38;;;;;;;13.05;3.90;;;13.20;94.00;;;;;;4937684;28;20377;-66
2022/03/18 11:42:09;;;;;;;18.13;4.72;;;13.20;94.10;;;;;;4947094;28;20061;-66
2022/03/18 11:44:56;;;;;;;25.35;4.93;;;13.20;93.80;;;;;;4939269;28;20032;-66
2022/03/18 11:47:30;;;;;;;23.63;4.10;;;13.20;93.70;;;;;;4943367;28;20074;-67
2022/03/18 11:49:57;;;;;;;25.00;4.82;;;13.20;93.70;;;;;;4955209;28;20074;-68
2022/03/18 11:52:24;;;;;;;26.10;4.35;;;13.20;93.70;;;;;;4940573;28;20101;-68
2022/03/18 11:54:54;;;;;;;23.60;4.85;;;13.30;93.70;;;;;;4978637;28;20035;-68
2022/03/18 11:57:47;;;;;;;28.38;4.93;;;13.30;93.50;;;;;;4942915;28;20055;-66
2022/03/18 12:00:31;;;;;;;29.17;4.43;;;13.40;93.50;;;;;;4949016;28;20062;-67
2022/03/18 12:03:00;;;;;;;18.48;3.72;;;13.50;93.30;;;;;;4952130;28;20134;-66
2022/03/18 12:05:30;;;;;;;20.95;3.90;;;13.50;93.30;;;;;;4951584;28;20036;-66
2022/03/18 12:07:57;;;;;;;19.42;4.50;;;13.50;93.30;;;;;;4942326;28;20075;-66
2022/03/18 12:10:37;;;;;;;30.25;4.55;;;13.60;93.30;;;;;;4936677;28;20036;-67
2022/03/18 12:13:03;;;;;;;14.32;4.65;;;13.60;93.30;;;;;;4951523;28;20479;-66
2022/03/18 12:15:30;;;;;;;19.15;3.45;;;13.60;93.30;;;;;;4951674;28;20035;-66
2022/03/18 12:17:58;;;;;;;25.98;4.55;;;13.60;93.20;;;;;;4952097;28;20123;-67
2022/03/18 12:20:27;;;;;;;18.58;4.30;;;13.60;93.20;;;;;;4982628;28;20062;-67
2022/03/18 12:22:54;;;;;;;28.52;5.18;;;13.60;93.10;;;;;;4994658;28;20395;-66
2022/03/18 12:25:22;;;;;;;19.85;4.13;;;13.70;93.10;;;;;;4978196;28;20032;-66
2022/03/18 12:27:52;;;;;;;18.50;4.43;;;13.60;93.10;;;;;;4998567;28;20039;-66
2022/03/18 12:30:20;;;;;;;20.20;4.35;;;13.60;93.10;;;;;;4994750;28;20107;-66
2022/03/18 12:32:51;;;;;;;14.57;4.78;;;13.70;93.10;;;;;;5024101;28;20053;-66
2022/03/18 12:35:18;;;;;;;26.45;6.40;;;13.70;93.00;;;;;;4991160;28;20074;-66
2022/03/18 12:37:46;;;;;;;23.75;5.20;;;13.70;93.00;;;;;;4985770;28;20039;-66
2022/03/18 12:40:12;;;;;;;18.45;4.55;;;13.70;92.90;;;;;;5002293;28;20035;-66
2022/03/18 12:42:56;;;;;;;20.52;4.35;;;13.70;92.90;;;;;;4950586;28;20092;-66
2022/03/18 12:45:31;;;;;;;17.67;3.97;;;13.70;92.90;;;;;;4942511;28;20625;-66
2022/03/18 12:47:58;;;;;;;30.77;4.68;;;13.70;92.90;;;;;;4945244;28;20020;-66
2022/03/18 12:50:29;;;;;;;20.65;4.65;;;13.80;92.90;;;;;;4933144;28;20099;-66
2022/03/18 12:52:56;;;;;;;21.27;4.63;;;13.70;93.00;;;;;;4950532;28;20494;-66
2022/03/18 12:55:24;;;;;;;27.45;4.78;;;13.70;93.00;;;;;;4938491;28;20396;-66
2022/03/18 12:57:54;;;;;;;26.08;4.70;;;13.70;92.90;;;;;;4943885;28;20042;-66
2022/03/18 13:00:24;;;;;;;27.17;4.47;;;13.70;93.30;;;;;;4944576;28;20576;-66